Meteo Giornale » Osservazioni meteo Stati Uniti (USA) » Scottsbluff Heilig Fld
ore: 00:53 - Osservazioni Meteo Scottsbluff Heilig Fld
Lat. 41° 52' N Lon. 103° 35' W Alt. 1208 metri s.l.m.
22 °C
Molto Nuvoloso
Temp. 24 Ore
13 °C
31 °C
Sud
16.7 Km/h
Dew point 10 °C
Umidità 46 %
Visibilità 10 Km
Il sole sorge alle ore 06:20
Il sole tramonta alle ore 19:28
| Data e Ora | Cielo e Fenomeni | T °C | DP °C | Um. % | Pres. hPa | Vis. km | Vento km/h | |
|---|---|---|---|---|---|---|---|---|
| Oggi h: 00:53 | Molto Nuvoloso | 22 | 10 | 46 | 1017 | 10 | S 16.7 | |
| Ieri h: 23:53 | Nuvoloso | 20 | 11 | 56 | 1017 | 10 | E 13 | |
| Ieri h: 22:53 | Sereno | 20 | 9 | 49 | 1018 | 10 | E 13 | |
| Ieri h: 21:53 | Sereno | 19 | 10 | 55 | 1018 | 10 | E 11.1 | |
| Ieri h: 20:53 | Sereno | 21 | 10 | 49 | 1017 | 10 | E/SE 14.8 | |
| Ieri h: 19:53 | Sereno | 24 | 9 | 38 | 1017 | 10 | E 13 | |
| Ieri h: 18:53 | Sereno | 28 | 9 | 30 | 1016 | 10 | SE 14.8 | |
| Ieri h: 17:53 | Sereno | 31 | 7 | 22 | 1016 | 10 | E/SE 13 | |
| Ieri h: 16:53 | Sereno | 31 | 4 | 18 | 1016 | 10 | NO 11.1 | |
| Ieri h: 15:53 | Sereno | 31 | 4 | 18 | 1016 | 10 | NO 13 | |
| Ieri h: 14:53 | Sereno | 31 | 6 | 20 | 1017 | 10 | N 11.1 | |
| Ieri h: 13:53 | Sereno | 30 | 7 | 23 | 1018 | 10 | N/NO 13 | |
| Ieri h: 12:53 | Sereno | 28 | 6 | 24 | 1018 | 10 | O/NO 18.5 | |
| Ieri h: 11:53 | Sereno | 28 | 9 | 30 | 1019 | 10 | O/NO 13 | |
| Ieri h: 10:53 | Sereno | 24 | 11 | 43 | 1019 | 10 | N 5.5 | |
| Ieri h: 09:53 | Sereno | 21 | 13 | 60 | 1019 | 10 | N 7.4 | |
| Ieri h: 08:53 | Sereno | 18 | 12 | 67 | 1019 | 10 | E 9.3 | |
| Ieri h: 07:53 | Sereno | 15 | 12 | 82 | 1019 | 10 | N 0 | |
| Ieri h: 06:53 | Sereno | 13 | 12 | 93 | 1018 | 10 | N 5.5 | |
| Ieri h: 05:53 | Molto Nuvoloso | 14 | 12 | 87 | 1018 | 10 | N 7.4 | |
| Ieri h: 04:53 | Poco Nuvoloso | 14 | 12 | 87 | 1017 | 10 | N/NE 9.3 | |
| Ieri h: 03:53 | Sereno | 15 | 11 | 76 | 1017 | 10 | N 5.5 | |
| Ieri h: 02:53 | Molto Nuvoloso | 16 | 11 | 72 | 1016 | 10 | N 0 | |
| Ieri h: 01:53 | Sereno | 16 | 12 | 77 | 1016 | 10 | N/NE 7.4 | |



